Time;durP1;ratioP1;P1;durP2;ratioP2;P2;SDS_P1;SDS_P2;PMS_P1;PMS_P2;Temp;Humidity;BMP_temperature;BMP_pressure;BME280_temperature;BME280_humidity;BME280_pressure;Samples;Min_cycle;Max_cycle;Signal;HPM_P1;HPM_P2
2023/10/18 00:00:51;;;;;;;6.35;5.75;;;22.50;91.50;;;;;;6228731;28;89134;-69
2023/10/18 00:03:54;;;;;;;6.55;5.80;;;22.40;91.40;;;;;;6209917;28;89153;-69
2023/10/18 00:06:56;;;;;;;6.95;6.25;;;22.40;91.50;;;;;;6218916;28;88942;-69
2023/10/18 00:09:59;;;;;;;6.55;5.50;;;22.50;91.40;;;;;;6215606;28;88338;-69
2023/10/18 00:13:02;;;;;;;6.50;5.78;;;22.40;91.50;;;;;;6218755;28;88984;-69
2023/10/18 00:16:07;;;;;;;6.30;5.70;;;22.40;91.50;;;;;;6221351;28;89073;-68
2023/10/18 00:19:11;;;;;;;6.00;5.40;;;22.40;91.50;;;;;;6219013;28;90261;-69
2023/10/18 00:22:13;;;;;;;6.15;5.55;;;22.40;91.60;;;;;;6207384;28;89215;-69
2023/10/18 00:25:16;;;;;;;7.53;5.90;;;22.40;91.60;;;;;;6221433;28;89055;-69
2023/10/18 00:28:25;;;;;;;6.35;5.60;;;22.40;91.60;;;;;;6217620;28;89405;-69
2023/10/18 00:31:27;;;;;;;6.93;6.00;;;22.40;91.50;;;;;;6226258;28;88305;-69
2023/10/18 00:34:29;;;;;;;7.13;5.75;;;22.30;91.50;;;;;;6216221;28;89024;-69
2023/10/18 00:37:31;;;;;;;6.65;5.78;;;22.40;91.60;;;;;;6227628;28;89093;-68
2023/10/18 00:40:36;;;;;;;6.50;5.70;;;22.30;91.60;;;;;;6220568;28;88666;-69
2023/10/18 00:43:44;;;;;;;7.10;5.70;;;22.30;91.60;;;;;;6221627;28;89023;-69
2023/10/18 00:46:47;;;;;;;7.45;5.70;;;22.40;91.60;;;;;;6221391;28;87974;-69
2023/10/18 00:49:52;;;;;;;6.00;5.40;;;22.30;91.60;;;;;;6223216;28;88774;-69
2023/10/18 00:52:54;;;;;;;5.90;5.30;;;22.40;91.60;;;;;;6209880;28;89845;-68
2023/10/18 00:55:59;;;;;;;6.22;5.63;;;22.40;91.60;;;;;;6227822;28;89161;-68
2023/10/18 00:59:05;;;;;;;6.22;5.60;;;22.30;91.60;;;;;;6219969;28;89888;-69
2023/10/18 01:02:14;;;;;;;6.75;5.90;;;22.30;91.60;;;;;;6222955;28;88994;-69
2023/10/18 01:05:16;;;;;;;6.40;5.80;;;22.30;91.60;;;;;;6221384;28;88547;-69
2023/10/18 01:08:23;;;;;;;7.55;6.00;;;22.30;91.70;;;;;;6215950;28;88251;-69
2023/10/18 01:11:27;;;;;;;6.53;5.78;;;22.40;91.60;;;;;;6212776;28;88345;-69
2023/10/18 01:14:31;;;;;;;6.10;5.40;;;22.30;91.70;;;;;;6213879;28;89182;-69
2023/10/18 01:17:34;;;;;;;6.38;5.78;;;22.30;92.00;;;;;;6219174;28;88477;-69
2023/10/18 01:20:40;;;;;;;5.68;5.18;;;22.30;91.70;;;;;;6220580;28;90067;-69
2023/10/18 01:23:44;;;;;;;6.22;5.60;;;22.30;91.70;;;;;;6212496;28;87962;-69
2023/10/18 01:26:47;;;;;;;5.93;5.32;;;22.30;91.70;;;;;;6209098;28;89040;-69
2023/10/18 01:29:50;;;;;;;5.88;5.28;;;22.30;91.70;;;;;;6218482;28;90081;-69
2023/10/18 01:32:52;;;;;;;6.13;5.18;;;22.30;91.80;;;;;;6229867;28;89155;-69
2023/10/18 01:35:54;;;;;;;5.82;5.13;;;22.20;91.80;;;;;;6219587;28;89011;-69
2023/10/18 01:38:56;;;;;;;7.40;5.60;;;22.30;91.80;;;;;;6211503;28;89052;-69
2023/10/18 01:42:00;;;;;;;8.20;5.95;;;22.30;91.80;;;;;;6211771;28;88144;-69
2023/10/18 01:45:21;;;;;;;6.43;5.78;;;22.30;91.70;;;;;;6227210;28;88803;-69
2023/10/18 01:48:25;;;;;;;7.78;6.22;;;22.30;91.70;;;;;;6221836;28;88877;-69
2023/10/18 01:51:27;;;;;;;7.60;5.88;;;22.20;91.70;;;;;;6211348;28;90025;-69
2023/10/18 01:54:29;;;;;;;6.45;5.80;;;22.20;91.70;;;;;;6214061;28;89224;-69
2023/10/18 01:57:33;;;;;;;6.25;5.63;;;22.20;91.70;;;;;;6214115;28;87939;-69
2023/10/18 02:00:37;;;;;;;6.47;5.88;;;22.20;91.70;;;;;;6222213;28;89274;-69
2023/10/18 02:03:40;;;;;;;6.63;5.93;;;22.20;91.70;;;;;;6211441;28;89199;-69
2023/10/18 02:06:42;;;;;;;7.90;6.65;;;22.20;91.70;;;;;;6212849;28;89110;-68
2023/10/18 02:09:48;;;;;;;7.22;6.43;;;22.20;91.80;;;;;;6215257;28;89102;-70
2023/10/18 02:12:51;;;;;;;7.13;6.43;;;22.20;91.80;;;;;;6209559;28;88710;-69
2023/10/18 02:15:53;;;;;;;8.35;6.72;;;22.20;91.80;;;;;;6225467;28;89318;-70
2023/10/18 02:18:55;;;;;;;7.30;6.50;;;22.20;91.80;;;;;;6229469;28;89081;-69
2023/10/18 02:21:59;;;;;;;7.07;6.25;;;22.20;91.80;;;;;;6218165;28;90421;-69
2023/10/18 02:25:02;;;;;;;8.45;7.32;;;22.20;91.80;;;;;;6218285;28;89293;-69
2023/10/18 02:28:08;;;;;;;8.23;7.00;;;22.20;91.80;;;;;;6223634;28;89068;-70
2023/10/18 02:31:13;;;;;;;7.38;6.50;;;22.20;91.80;;;;;;6217823;28;87922;-70
2023/10/18 02:34:15;;;;;;;8.07;7.07;;;22.20;91.80;;;;;;6216458;28;89075;-70
2023/10/18 02:37:17;;;;;;;8.35;7.20;;;22.20;91.80;;;;;;6208492;28;89378;-69
2023/10/18 02:40:29;;;;;;;9.25;8.05;;;22.20;91.80;;;;;;6216264;28;89139;-69
2023/10/18 02:43:33;;;;;;;8.00;7.20;;;22.20;91.80;;;;;;6217105;28;88652;-69
2023/10/18 02:46:35;;;;;;;9.10;7.90;;;22.20;91.80;;;;;;6209685;28;89288;-69
2023/10/18 02:49:37;;;;;;;10.25;7.90;;;22.20;91.80;;;;;;6218874;28;89135;-70
2023/10/18 02:52:41;;;;;;;9.35;7.68;;;22.20;91.80;;;;;;6220708;28;88924;-70
2023/10/18 02:55:50;;;;;;;12.30;8.45;;;22.20;91.80;;;;;;6219385;28;89058;-69
2023/10/18 02:58:57;;;;;;;9.48;7.55;;;22.20;91.90;;;;;;6223261;28;87925;-69
2023/10/18 03:02:01;;;;;;;8.77;7.88;;;22.20;91.90;;;;;;6215045;28;88743;-69
2023/10/18 03:05:05;;;;;;;11.07;8.43;;;22.10;91.90;;;;;;6218902;28;90469;-69
2023/10/18 03:08:08;;;;;;;9.77;7.65;;;22.10;91.80;;;;;;6213244;28;89269;-70
2023/10/18 03:11:11;;;;;;;8.80;7.90;;;22.10;91.90;;;;;;6220623;28;88919;-70
2023/10/18 03:14:14;;;;;;;8.85;7.90;;;22.10;91.90;;;;;;6209380;28;88291;-69
2023/10/18 03:17:19;;;;;;;10.57;8.23;;;22.10;91.80;;;;;;6216829;28;87886;-70
2023/10/18 03:20:22;;;;;;;9.27;7.85;;;22.10;91.90;;;;;;6204747;28;89072;-70
2023/10/18 03:23:26;;;;;;;9.05;7.50;;;22.10;91.90;;;;;;6220772;28;90113;-69
2023/10/18 03:26:35;;;;;;;8.93;7.93;;;22.10;91.90;;;;;;6216600;28;89394;-69
2023/10/18 03:29:39;;;;;;;8.43;7.63;;;22.10;91.90;;;;;;6212639;28;89038;-70
2023/10/18 03:32:41;;;;;;;10.00;8.35;;;22.10;91.90;;;;;;6217138;28;88645;-68
2023/10/18 03:35:46;;;;;;;9.65;8.40;;;22.10;92.00;;;;;;6218333;28;89109;-68
2023/10/18 03:39:00;;;;;;;8.95;8.05;;;22.10;92.00;;;;;;6213654;28;88295;-68
2023/10/18 03:42:03;;;;;;;9.90;8.63;;;22.10;92.00;;;;;;6210557;28;89070;-67
2023/10/18 03:45:10;;;;;;;9.32;8.00;;;22.10;92.00;;;;;;6219618;28;88373;-67
2023/10/18 03:48:23;;;;;;;9.30;8.30;;;22.10;92.00;;;;;;6218264;28;89071;-67
2023/10/18 03:51:25;;;;;;;9.85;8.40;;;22.10;92.40;;;;;;6221081;28;89271;-68
2023/10/18 03:54:43;;;;;;;8.85;7.85;;;22.10;92.00;;;;;;6217067;28;90022;-68
2023/10/18 03:57:46;;;;;;;9.07;7.85;;;22.10;92.00;;;;;;6209026;28;89036;-69
2023/10/18 04:00:54;;;;;;;9.07;8.18;;;22.10;92.10;;;;;;6211279;28;89260;-68
2023/10/18 04:03:56;;;;;;;7.75;6.95;;;22.10;92.10;;;;;;6215422;28;89152;-68
2023/10/18 04:06:58;;;;;;;8.48;7.57;;;22.10;92.10;;;;;;6218613;28;89201;-68
2023/10/18 04:10:13;;;;;;;8.60;7.78;;;22.10;92.10;;;;;;6225044;28;89064;-68
2023/10/18 04:13:15;;;;;;;8.45;7.57;;;22.10;92.20;;;;;;6204246;28;88932;-69
2023/10/18 04:16:25;;;;;;;8.13;7.38;;;22.10;92.20;;;;;;6207515;28;88678;-68
2023/10/18 04:19:28;;;;;;;8.57;7.68;;;22.20;92.20;;;;;;6214265;28;89713;-69
2023/10/18 04:22:30;;;;;;;8.57;7.68;;;22.20;92.00;;;;;;6226034;28;89146;-68
2023/10/18 04:25:32;;;;;;;8.52;7.65;;;22.20;91.90;;;;;;6212644;28;90077;-68
2023/10/18 04:28:37;;;;;;;8.43;7.53;;;22.20;91.80;;;;;;6218529;28;88978;-68
2023/10/18 04:32:03;;;;;;;9.32;7.93;;;22.20;91.80;;;;;;6213649;28;89256;-68
2023/10/18 04:35:09;;;;;;;8.25;7.45;;;22.30;91.80;;;;;;6227464;28;89105;-68
2023/10/18 04:38:21;;;;;;;9.07;7.45;;;22.30;91.70;;;;;;6219856;28;89001;-69
2023/10/18 04:41:28;;;;;;;8.50;7.55;;;22.30;91.70;;;;;;6219861;28;89687;-68
2023/10/18 04:44:34;;;;;;;8.05;7.25;;;22.30;91.70;;;;;;6214172;28;89158;-67
2023/10/18 04:47:40;;;;;;;8.52;7.63;;;22.30;91.70;;;;;;6213186;28;88314;-68
2023/10/18 04:50:52;;;;;;;7.13;6.43;;;22.30;91.70;;;;;;6210609;28;89463;-69
2023/10/18 04:53:57;;;;;;;8.18;7.38;;;22.30;91.60;;;;;;6213676;28;89161;-68
2023/10/18 04:57:00;;;;;;;7.80;7.00;;;22.30;91.70;;;;;;6229164;28;90068;-69
2023/10/18 05:00:11;;;;;;;10.20;7.90;;;22.30;91.80;;;;;;6220729;28;89432;-68
2023/10/18 05:03:13;;;;;;;8.85;7.38;;;22.30;91.90;;;;;;6210941;28;89233;-68
2023/10/18 05:06:16;;;;;;;8.18;7.00;;;22.30;92.00;;;;;;6220458;28;90208;-68
2023/10/18 05:09:18;;;;;;;7.65;6.75;;;22.30;91.90;;;;;;6227488;28;89117;-68
2023/10/18 05:12:29;;;;;;;8.90;7.03;;;22.30;91.90;;;;;;6213465;28;89158;-68
2023/10/18 05:15:31;;;;;;;7.93;6.50;;;22.30;91.80;;;;;;6224830;28;89076;-68
2023/10/18 05:18:34;;;;;;;7.38;6.55;;;22.30;91.80;;;;;;6211649;28;88296;-68
2023/10/18 05:21:38;;;;;;;7.10;6.40;;;22.20;91.60;;;;;;6220167;28;89029;-68
2023/10/18 05:24:40;;;;;;;7.30;6.60;;;22.30;91.60;;;;;;6217824;28;89266;-67
2023/10/18 05:27:50;;;;;;;9.50;6.78;;;22.30;91.60;;;;;;6222562;28;90004;-69
2023/10/18 05:34:22;;;;;;;9.82;6.78;;;22.30;91.50;;;;;;6217572;28;89025;-68
2023/10/18 05:37:32;;;;;;;9.63;6.80;;;22.30;91.50;;;;;;6210606;28;89146;-68
2023/10/18 05:40:56;;;;;;;7.25;6.20;;;22.30;91.50;;;;;;6232100;28;89034;-68
2023/10/18 05:43:58;;;;;;;8.10;6.43;;;22.30;91.90;;;;;;6210688;28;89214;-69
2023/10/18 05:47:06;;;;;;;8.27;6.32;;;22.30;91.60;;;;;;6210823;28;89020;-68
2023/10/18 05:50:12;;;;;;;7.80;5.95;;;22.30;91.70;;;;;;6208672;28;88358;-68
2023/10/18 05:53:18;;;;;;;7.65;6.50;;;22.30;92.20;;;;;;6218015;28;89472;-69
2023/10/18 05:56:22;;;;;;;6.50;5.80;;;22.30;91.90;;;;;;6214900;28;89071;-68
2023/10/18 05:59:33;;;;;;;6.57;5.63;;;22.30;91.90;;;;;;6209264;28;88922;-68
2023/10/18 06:02:37;;;;;;;6.93;5.82;;;22.30;91.90;;;;;;6214845;28;88942;-68
2023/10/18 06:05:41;;;;;;;6.93;5.82;;;22.30;91.80;;;;;;6210607;28;89125;-68
2023/10/18 06:08:43;;;;;;;7.68;6.03;;;22.30;91.60;;;;;;6208525;28;89095;-69
2023/10/18 06:11:48;;;;;;;7.82;5.97;;;22.30;91.70;;;;;;6215691;28;89413;-68
2023/10/18 06:18:37;;;;;;;6.40;5.80;;;22.30;91.60;;;;;;6208140;28;87081;-68
2023/10/18 06:21:57;;;;;;;6.32;5.70;;;22.20;91.60;;;;;;6218745;28;90379;-69
2023/10/18 06:25:03;;;;;;;6.43;5.57;;;22.20;91.60;;;;;;6208635;28;89261;-68
2023/10/18 06:28:07;;;;;;;5.88;5.28;;;22.30;91.60;;;;;;6209625;28;89062;-68
2023/10/18 06:31:09;;;;;;;6.40;5.22;;;22.20;91.50;;;;;;6222827;28;90270;-68
2023/10/18 06:34:15;;;;;;;8.00;5.70;;;22.30;91.60;;;;;;6228622;28;89037;-68
2023/10/18 06:37:21;;;;;;;5.50;5.00;;;22.20;91.70;;;;;;6211173;28;89577;-68
2023/10/18 06:40:40;;;;;;;5.80;5.20;;;22.30;91.80;;;;;;6208493;28;88032;-69
2023/10/18 06:43:42;;;;;;;6.45;5.65;;;22.30;91.90;;;;;;6216182;28;89011;-68
2023/10/18 06:46:47;;;;;;;5.78;5.18;;;22.30;91.90;;;;;;6219745;28;90128;-68
2023/10/18 06:49:51;;;;;;;5.28;4.78;;;22.30;91.90;;;;;;6211555;28;89070;-69
2023/10/18 06:52:54;;;;;;;5.65;5.05;;;22.30;91.90;;;;;;6217299;28;88678;-68
2023/10/18 06:55:58;;;;;;;5.60;5.10;;;22.20;91.80;;;;;;6208420;28;89095;-68
2023/10/18 06:59:06;;;;;;;6.68;5.43;;;22.20;91.70;;;;;;6216744;28;89258;-69
2023/10/18 07:02:11;;;;;;;6.15;5.20;;;22.30;91.80;;;;;;6218676;28;90034;-68
2023/10/18 07:05:13;;;;;;;6.13;4.75;;;22.20;91.70;;;;;;6205726;28;88114;-69
2023/10/18 07:08:20;;;;;;;6.15;5.03;;;22.20;91.70;;;;;;6226204;28;88182;-69
2023/10/18 07:11:23;;;;;;;5.70;4.82;;;22.30;91.70;;;;;;6212046;28;88995;-68
2023/10/18 07:14:25;;;;;;;5.57;4.93;;;22.30;91.60;;;;;;6223270;28;89031;-68
2023/10/18 07:17:27;;;;;;;5.68;4.97;;;22.30;91.60;;;;;;6207439;28;88258;-68
2023/10/18 07:20:34;;;;;;;5.72;5.13;;;22.30;91.60;;;;;;6208378;28;89230;-69
2023/10/18 07:23:39;;;;;;;5.40;4.90;;;22.30;91.60;;;;;;6207234;28;88531;-68
2023/10/18 07:26:42;;;;;;;5.20;4.70;;;22.30;91.70;;;;;;6211196;28;89189;-69
2023/10/18 07:29:48;;;;;;;5.13;4.63;;;22.20;91.80;;;;;;6216240;28;89511;-68
2023/10/18 07:32:57;;;;;;;5.03;4.47;;;22.20;91.80;;;;;;6225418;28;90302;-68
2023/10/18 07:36:00;;;;;;;5.30;4.70;;;22.30;91.90;;;;;;6212327;28;89176;-68
2023/10/18 07:39:04;;;;;;;5.95;4.72;;;22.20;91.90;;;;;;6214474;28;89052;-68
2023/10/18 07:42:07;;;;;;;6.97;5.07;;;22.30;92.00;;;;;;6221677;28;89450;-69
2023/10/18 07:45:14;;;;;;;5.45;4.40;;;22.30;92.00;;;;;;6218008;28;88843;-68
2023/10/18 07:48:16;;;;;;;5.13;4.60;;;22.30;91.80;;;;;;6217291;28;89632;-68
2023/10/18 07:51:25;;;;;;;5.30;4.45;;;22.20;91.60;;;;;;6205877;28;89123;-68
2023/10/18 07:54:28;;;;;;;5.28;4.75;;;22.30;91.60;;;;;;6221738;28;87767;-68
2023/10/18 07:57:33;;;;;;;5.25;4.57;;;22.20;91.50;;;;;;6214425;28;88085;-68
2023/10/18 08:00:35;;;;;;;5.35;4.60;;;22.30;91.60;;;;;;6217175;28;89120;-68
2023/10/18 08:03:38;;;;;;;5.10;4.60;;;22.30;91.60;;;;;;6208145;28;90329;-68
2023/10/18 08:06:40;;;;;;;5.32;4.50;;;22.20;91.60;;;;;;6218085;28;88963;-68
2023/10/18 08:09:44;;;;;;;4.93;4.40;;;22.20;91.60;;;;;;6222825;28;88993;-69
2023/10/18 08:12:48;;;;;;;5.28;4.30;;;22.30;91.60;;;;;;6216060;28;89123;-68
2023/10/18 08:15:53;;;;;;;5.25;4.35;;;22.20;91.70;;;;;;6211874;28;89561;-68
2023/10/18 08:18:57;;;;;;;4.95;4.10;;;22.30;91.80;;;;;;6214559;28;89127;-69
2023/10/18 08:22:21;;;;;;;6.47;4.60;;;22.30;91.70;;;;;;6208209;28;88913;-69
2023/10/18 08:25:29;;;;;;;5.30;4.40;;;22.30;91.80;;;;;;6207627;28;88666;-69
2023/10/18 08:28:38;;;;;;;5.68;4.85;;;22.30;91.80;;;;;;6217882;28;89070;-68
2023/10/18 08:31:43;;;;;;;7.35;4.90;;;22.30;91.80;;;;;;6218188;28;88329;-69
2023/10/18 08:34:48;;;;;;;7.45;5.15;;;22.30;91.80;;;;;;6217933;28;90093;-69
2023/10/18 08:37:50;;;;;;;6.95;5.07;;;22.30;91.80;;;;;;6212200;28;89246;-68
2023/10/18 08:41:05;;;;;;;7.43;5.30;;;22.30;91.70;;;;;;6206551;28;87706;-69
2023/10/18 08:44:19;;;;;;;9.82;5.90;;;22.30;91.50;;;;;;6206780;28;89085;-68
2023/10/18 08:47:21;;;;;;;8.30;5.45;;;22.30;91.50;;;;;;6206044;28;89063;-68
2023/10/18 08:50:26;;;;;;;9.70;5.80;;;22.20;91.50;;;;;;6205961;28;89162;-69
2023/10/18 08:53:31;;;;;;;9.02;5.95;;;22.30;91.50;;;;;;6206604;28;89457;-68
2023/10/18 08:56:35;;;;;;;8.63;5.85;;;22.20;91.40;;;;;;6223480;28;86907;-68
2023/10/18 08:59:45;;;;;;;9.65;6.20;;;22.20;91.50;;;;;;6221484;28;89083;-69
2023/10/18 09:02:50;;;;;;;7.68;5.88;;;22.30;91.40;;;;;;6229095;28;88972;-68
2023/10/18 09:05:53;;;;;;;10.18;6.25;;;22.20;91.50;;;;;;6223799;28;90052;-69
2023/10/18 09:09:04;;;;;;;9.85;5.97;;;22.30;91.70;;;;;;6219537;28;88957;-69
2023/10/18 09:12:15;;;;;;;11.77;6.28;;;22.20;91.70;;;;;;6225570;28;89278;-69
2023/10/18 09:15:28;;;;;;;11.13;6.07;;;22.20;91.80;;;;;;6215742;28;89055;-68
2023/10/18 09:18:31;;;;;;;12.25;6.75;;;22.30;91.80;;;;;;6215952;28;88902;-68
2023/10/18 09:21:50;;;;;;;13.23;7.03;;;22.20;91.80;;;;;;6216282;28;89167;-68
2023/10/18 09:24:54;;;;;;;17.52;7.72;;;22.20;91.60;;;;;;6236742;27;89599;-68
2023/10/18 09:28:10;;;;;;;12.32;7.60;;;22.20;91.60;;;;;;6222181;28;88793;-69
2023/10/18 09:31:18;;;;;;;11.40;7.65;;;22.20;91.50;;;;;;6211854;28;89199;-69
2023/10/18 09:34:20;;;;;;;18.48;8.80;;;22.30;91.50;;;;;;6222412;28;88909;-69
2023/10/18 09:37:29;;;;;;;17.35;8.85;;;22.30;91.40;;;;;;6221286;28;89998;-68
2023/10/18 09:40:31;;;;;;;12.50;8.60;;;22.30;91.30;;;;;;6221383;28;89069;-69
2023/10/18 09:43:36;;;;;;;16.92;9.10;;;22.30;91.30;;;;;;6211602;28;89172;-69
2023/10/18 09:46:38;;;;;;;12.75;9.05;;;22.30;91.30;;;;;;6220723;28;89045;-68
2023/10/18 09:49:41;;;;;;;18.65;9.82;;;22.30;91.30;;;;;;6218753;28;89432;-69
2023/10/18 09:52:51;;;;;;;15.70;9.98;;;22.30;91.30;;;;;;6217303;28;89542;-69
2023/10/18 09:55:59;;;;;;;13.82;9.27;;;22.30;91.40;;;;;;6216800;28;89168;-69
2023/10/18 09:59:08;;;;;;;17.67;9.68;;;22.30;91.60;;;;;;6227100;28;88429;-69
2023/10/18 10:02:15;;;;;;;12.70;9.63;;;22.30;92.10;;;;;;6215328;28;89130;-69
2023/10/18 10:05:25;;;;;;;12.85;9.50;;;22.30;91.80;;;;;;6227631;28;89126;-69
2023/10/18 10:08:31;;;;;;;15.10;10.20;;;22.30;91.80;;;;;;6219752;28;89196;-69
2023/10/18 10:11:38;;;;;;;14.77;10.35;;;22.40;91.80;;;;;;6222627;28;89265;-69
2023/10/18 10:14:42;;;;;;;12.88;9.95;;;22.30;91.60;;;;;;6212364;28;89218;-69
2023/10/18 10:17:56;;;;;;;13.95;10.00;;;22.30;91.60;;;;;;6221652;28;89051;-69
2023/10/18 10:21:03;;;;;;;14.35;10.55;;;22.30;91.60;;;;;;6217252;28;89094;-69
2023/10/18 10:24:09;;;;;;;15.30;10.98;;;22.30;91.50;;;;;;6214747;28;88920;-69
2023/10/18 10:27:28;;;;;;;15.27;11.02;;;22.30;91.50;;;;;;6215672;28;88263;-69
2023/10/18 10:30:43;;;;;;;14.20;10.68;;;22.30;91.50;;;;;;6216820;28;88719;-68
2023/10/18 10:34:05;;;;;;;15.40;10.93;;;22.30;91.50;;;;;;6218314;28;89111;-69
2023/10/18 10:37:18;;;;;;;15.18;10.80;;;22.30;91.40;;;;;;6219436;28;88093;-68
2023/10/18 10:40:39;;;;;;;14.77;10.95;;;22.30;91.50;;;;;;6217277;28;90184;-68
2023/10/18 10:44:07;;;;;;;14.55;10.63;;;22.30;91.50;;;;;;6220198;28;89007;-69
2023/10/18 10:47:30;;;;;;;13.50;10.55;;;22.40;91.50;;;;;;6224294;28;88974;-69
2023/10/18 10:50:45;;;;;;;13.48;10.45;;;22.30;91.60;;;;;;6226203;28;87666;-69
2023/10/18 10:53:54;;;;;;;12.82;10.07;;;22.30;91.70;;;;;;6218987;28;88975;-69
2023/10/18 10:56:56;;;;;;;15.10;10.98;;;22.30;91.80;;;;;;6211666;28;89062;-68
2023/10/18 10:59:58;;;;;;;12.45;10.40;;;22.30;91.90;;;;;;6225611;28;89097;-69
2023/10/18 11:03:06;;;;;;;14.63;10.52;;;22.30;92.00;;;;;;6225039;28;88673;-69
2023/10/18 11:06:10;;;;;;;13.75;10.55;;;22.30;91.90;;;;;;6205782;28;89336;-69
2023/10/18 11:09:16;;;;;;;13.80;10.55;;;22.30;91.80;;;;;;6210487;28;89208;-69
2023/10/18 11:12:22;;;;;;;12.80;10.60;;;22.30;91.80;;;;;;6204540;28;90319;-68
2023/10/18 11:15:27;;;;;;;12.88;10.57;;;22.40;91.80;;;;;;6208741;28;89159;-69
2023/10/18 11:18:34;;;;;;;13.35;11.02;;;22.40;91.70;;;;;;6206937;28;89002;-69
2023/10/18 11:21:38;;;;;;;12.25;10.35;;;22.40;91.70;;;;;;6217833;28;89250;-69
2023/10/18 11:24:41;;;;;;;13.50;10.43;;;22.40;91.60;;;;;;6221852;28;89387;-69
2023/10/18 11:27:43;;;;;;;13.18;10.95;;;22.40;91.70;;;;;;6215942;28;89042;-69
2023/10/18 11:30:45;;;;;;;12.68;10.27;;;22.40;91.70;;;;;;6227064;28;89197;-68
2023/10/18 11:33:54;;;;;;;11.60;9.98;;;22.40;91.60;;;;;;6216989;28;88431;-69
2023/10/18 11:37:01;;;;;;;12.80;10.93;;;22.40;91.60;;;;;;6208897;28;89718;-69
2023/10/18 11:40:14;;;;;;;14.23;10.07;;;22.40;91.60;;;;;;6213598;28;89033;-69
2023/10/18 11:43:25;;;;;;;12.90;9.85;;;22.40;91.80;;;;;;6206302;28;91951;-69
2023/10/18 11:46:27;;;;;;;12.80;10.00;;;22.40;91.90;;;;;;6205726;28;89062;-69
2023/10/18 11:49:37;;;;;;;14.88;9.93;;;22.40;92.00;;;;;;6207851;28;89086;-69
2023/10/18 11:52:41;;;;;;;12.02;9.60;;;22.40;92.00;;;;;;6216314;28;88985;-70
2023/10/18 11:55:56;;;;;;;13.90;10.25;;;22.40;92.10;;;;;;6208182;28;89249;-69
2023/10/18 11:59:01;;;;;;;11.68;9.50;;;22.40;92.00;;;;;;6209658;28;89445;-68
2023/10/18 12:02:04;;;;;;;11.55;9.32;;;22.40;92.00;;;;;;6217764;28;89234;-68
2023/10/18 12:05:10;;;;;;;12.57;9.88;;;22.40;92.00;;;;;;6217340;28;87027;-69
2023/10/18 12:08:13;;;;;;;10.80;9.30;;;22.40;92.00;;;;;;6212987;28;89147;-69
2023/10/18 12:11:16;;;;;;;12.68;10.00;;;22.40;92.00;;;;;;6208990;28;89079;-70
2023/10/18 12:14:18;;;;;;;11.77;9.27;;;22.40;92.00;;;;;;6212884;28;90143;-68
2023/10/18 12:17:21;;;;;;;10.18;9.05;;;22.30;92.00;;;;;;6205801;28;89026;-68
2023/10/18 12:20:34;;;;;;;9.95;8.93;;;22.40;92.40;;;;;;6207033;28;87878;-69
2023/10/18 12:23:36;;;;;;;10.35;8.73;;;22.40;92.00;;;;;;6226483;28;89285;-69
2023/10/18 12:26:39;;;;;;;9.68;8.68;;;22.30;92.00;;;;;;6209447;28;89008;-69
2023/10/18 12:29:43;;;;;;;10.55;9.18;;;22.40;92.00;;;;;;6223197;28;89089;-68
2023/10/18 12:32:51;;;;;;;10.82;9.25;;;22.40;91.90;;;;;;6214440;28;88979;-69
2023/10/18 12:35:58;;;;;;;10.35;8.95;;;22.40;91.90;;;;;;6223989;28;88335;-69
2023/10/18 12:39:00;;;;;;;10.80;9.05;;;22.40;92.10;;;;;;6227398;28;89145;-68
2023/10/18 12:42:04;;;;;;;12.07;9.68;;;22.40;92.10;;;;;;6209581;28;88053;-69
2023/10/18 12:45:18;;;;;;;10.48;9.20;;;22.40;92.20;;;;;;6209370;28;90089;-68
2023/10/18 12:48:23;;;;;;;10.73;9.63;;;22.40;92.20;;;;;;6212357;28;89113;-68
2023/10/18 12:51:31;;;;;;;11.43;9.23;;;22.40;92.20;;;;;;6226436;28;89556;-69
2023/10/18 12:54:36;;;;;;;10.73;9.43;;;22.40;92.20;;;;;;6209621;28;89039;-69
2023/10/18 12:57:42;;;;;;;10.88;9.30;;;22.40;92.20;;;;;;6213168;28;89172;-69
2023/10/18 13:00:44;;;;;;;10.40;9.30;;;22.40;92.10;;;;;;6220188;28;89004;-68
2023/10/18 13:03:46;;;;;;;10.05;8.77;;;22.40;92.10;;;;;;6212854;28;88958;-68
2023/10/18 13:06:55;;;;;;;9.80;8.80;;;22.30;92.10;;;;;;6228045;28;87243;-68
2023/10/18 13:09:57;;;;;;;10.70;9.10;;;22.40;92.10;;;;;;6215529;28;89071;-68
2023/10/18 13:13:04;;;;;;;11.35;9.65;;;22.30;92.10;;;;;;6209213;28;89090;-68
2023/10/18 13:16:13;;;;;;;10.50;9.40;;;22.40;92.10;;;;;;6218562;28;89980;-68
2023/10/18 13:19:15;;;;;;;11.27;9.88;;;22.40;92.10;;;;;;6218759;28;89301;-69
2023/10/18 13:22:18;;;;;;;10.77;9.65;;;22.30;92.10;;;;;;6220432;28;89001;-69
2023/10/18 13:25:26;;;;;;;10.88;9.77;;;22.30;92.00;;;;;;6216921;28;88266;-69
2023/10/18 13:28:34;;;;;;;10.65;9.27;;;22.40;92.10;;;;;;6219678;28;89292;-69
2023/10/18 13:31:36;;;;;;;10.50;9.40;;;22.30;92.20;;;;;;6211079;28;90345;-69
2023/10/18 13:34:42;;;;;;;10.40;9.40;;;22.30;92.20;;;;;;6221488;28;89251;-69
2023/10/18 13:37:46;;;;;;;10.68;9.57;;;22.40;92.30;;;;;;6207338;28;88663;-69
2023/10/18 13:40:48;;;;;;;11.15;9.55;;;22.40;92.30;;;;;;6210229;28;89082;-69
2023/10/18 13:43:54;;;;;;;10.07;9.07;;;22.40;92.30;;;;;;6212827;28;88027;-69
2023/10/18 13:46:57;;;;;;;10.50;9.30;;;22.40;92.40;;;;;;6223030;28;90294;-69
2023/10/18 13:49:59;;;;;;;10.18;9.18;;;22.30;92.30;;;;;;6219329;28;89070;-69
2023/10/18 13:53:03;;;;;;;11.30;10.10;;;22.30;92.30;;;;;;6220578;28;88683;-68
2023/10/18 13:56:06;;;;;;;10.93;9.63;;;22.40;92.30;;;;;;6223983;28;89301;-68
2023/10/18 13:59:08;;;;;;;10.43;9.32;;;22.40;92.30;;;;;;6218932;28;89536;-69
2023/10/18 14:02:17;;;;;;;10.73;9.63;;;22.40;92.30;;;;;;6214859;28;89252;-68
2023/10/18 14:05:19;;;;;;;10.90;9.48;;;22.40;92.20;;;;;;6208392;28;89200;-69
2023/10/18 14:08:22;;;;;;;9.90;8.90;;;22.40;92.20;;;;;;6222285;28;87542;-69
2023/10/18 14:11:25;;;;;;;11.00;9.82;;;22.30;92.20;;;;;;6214476;28;89080;-70
2023/10/18 14:14:28;;;;;;;10.35;9.30;;;22.30;92.20;;;;;;6216570;28;89018;-70
2023/10/18 14:17:30;;;;;;;10.70;9.60;;;22.30;92.20;;;;;;6216383;28;90026;-69
2023/10/18 14:20:32;;;;;;;10.25;9.25;;;22.30;92.30;;;;;;6220224;28;89261;-70
2023/10/18 14:23:36;;;;;;;11.00;9.70;;;22.30;92.40;;;;;;6206493;28;90851;-69
2023/10/18 14:26:39;;;;;;;10.52;9.52;;;22.30;92.40;;;;;;6211177;28;89032;-69
2023/10/18 14:29:42;;;;;;;10.50;9.40;;;22.30;92.40;;;;;;6208997;28;89234;-69
2023/10/18 14:32:44;;;;;;;11.00;9.88;;;22.40;92.40;;;;;;6214825;28;89044;-70
2023/10/18 14:35:47;;;;;;;10.73;9.63;;;22.40;92.40;;;;;;6221882;28;89229;-69
2023/10/18 14:38:51;;;;;;;10.65;9.55;;;22.40;92.40;;;;;;6222378;28;88504;-70
2023/10/18 14:41:53;;;;;;;10.65;9.55;;;22.30;92.40;;;;;;6220339;28;89063;-70
2023/10/18 14:44:55;;;;;;;10.60;9.38;;;22.40;92.40;;;;;;6215218;28;92087;-69
2023/10/18 14:47:57;;;;;;;10.05;9.00;;;22.40;92.40;;;;;;6210230;28;90012;-70
2023/10/18 14:50:59;;;;;;;14.77;10.02;;;22.30;92.30;;;;;;6225602;28;89376;-69
2023/10/18 14:54:02;;;;;;;11.25;9.45;;;22.30;92.90;;;;;;6220679;28;88215;-69
2023/10/18 14:57:04;;;;;;;10.48;9.40;;;22.30;92.80;;;;;;6221040;28;89454;-69
2023/10/18 15:00:10;;;;;;;11.43;9.43;;;22.30;92.80;;;;;;6214579;28;89077;-69
2023/10/18 15:03:12;;;;;;;11.82;9.25;;;22.30;92.90;;;;;;6210009;28;89148;-69
2023/10/18 15:06:16;;;;;;;12.68;9.90;;;22.40;93.00;;;;;;6232272;28;89073;-69
2023/10/18 15:09:20;;;;;;;16.08;10.10;;;22.30;93.00;;;;;;6218731;28;87237;-69
2023/10/18 15:12:22;;;;;;;11.70;8.98;;;22.30;93.40;;;;;;6207311;28;88977;-69
2023/10/18 15:15:26;;;;;;;10.85;9.23;;;22.30;93.50;;;;;;6220394;28;89081;-69
2023/10/18 15:18:28;;;;;;;11.30;9.30;;;22.30;93.60;;;;;;6205355;28;90118;-70
2023/10/18 15:21:31;;;;;;;11.02;9.93;;;22.30;93.60;;;;;;6220907;28;89041;-69
2023/10/18 15:24:40;;;;;;;10.35;9.13;;;22.30;93.70;;;;;;6211633;28;89361;-69
2023/10/18 15:27:42;;;;;;;15.73;10.15;;;22.30;93.70;;;;;;6215465;28;89192;-69
2023/10/18 15:30:45;;;;;;;11.88;8.95;;;22.30;93.60;;;;;;6218530;28;87959;-68
2023/10/18 15:33:47;;;;;;;10.95;8.80;;;22.30;93.60;;;;;;6207983;28;88975;-69
2023/10/18 15:36:49;;;;;;;10.75;9.27;;;22.30;93.70;;;;;;6227001;28;89071;-68
2023/10/18 15:39:54;;;;;;;10.40;8.95;;;22.30;93.70;;;;;;6207883;28;87435;-69
2023/10/18 15:42:56;;;;;;;10.80;9.40;;;22.40;93.70;;;;;;6209147;28;89108;-69
2023/10/18 15:45:58;;;;;;;10.77;8.95;;;22.40;93.80;;;;;;6209118;28;88452;-69
2023/10/18 15:49:00;;;;;;;9.68;8.65;;;22.40;93.80;;;;;;6216600;28;90156;-68
2023/10/18 15:52:06;;;;;;;11.15;9.40;;;22.40;93.80;;;;;;6223059;28;88894;-69
2023/10/18 15:55:14;;;;;;;10.82;8.82;;;22.40;93.80;;;;;;6219763;28;89302;-68
2023/10/18 15:58:16;;;;;;;9.73;8.65;;;22.40;93.90;;;;;;6222738;28;89095;-69
2023/10/18 16:01:18;;;;;;;11.02;9.10;;;22.40;94.00;;;;;;6214812;28;89261;-69
2023/10/18 16:04:20;;;;;;;10.05;9.00;;;22.40;94.10;;;;;;6218597;28;89134;-69